Time;durP1;ratioP1;P1;durP2;ratioP2;P2;SDS_P1;SDS_P2;PMS_P1;PMS_P2;Temp;Humidity;BMP_temperature;BMP_pressure;BME280_temperature;BME280_humidity;BME280_pressure;Samples;Min_cycle;Max_cycle;Signal;HPM_P1;HPM_P2
2022/01/11 00:00:41;;;;;;;77.18;36.45;;;5.80;99.90;;;;;;5073231;28;20020;-74
2022/01/11 00:03:08;;;;;;;83.15;37.47;;;5.80;99.90;;;;;;5073179;28;20028;-74
2022/01/11 00:08:14;;;;;;;77.63;36.38;;;5.80;99.90;;;;;;5073435;28;20087;-74
2022/01/11 00:10:49;;;;;;;74.57;34.67;;;5.80;99.90;;;;;;5073517;28;20358;-73
2022/01/11 00:13:16;;;;;;;76.82;36.15;;;5.70;99.90;;;;;;5055895;28;20070;-73
2022/01/11 00:15:42;;;;;;;76.60;36.05;;;5.70;99.90;;;;;;5073593;28;20025;-74
2022/01/11 00:18:08;;;;;;;75.00;35.65;;;5.70;99.90;;;;;;5073485;28;20438;-73
2022/01/11 00:20:36;;;;;;;74.93;35.22;;;5.70;99.90;;;;;;5073308;28;20021;-74
2022/01/11 00:25:32;;;;;;;72.60;34.78;;;5.60;99.90;;;;;;5072821;28;20039;-75
2022/01/11 00:27:59;;;;;;;70.95;33.97;;;5.60;99.90;;;;;;5055274;28;20027;-73
2022/01/11 00:30:31;;;;;;;72.55;34.47;;;5.80;99.90;;;;;;5073915;28;20032;-76
2022/01/11 00:32:59;;;;;;;68.85;32.83;;;5.70;99.90;;;;;;5092978;28;20024;-74
2022/01/11 00:35:28;;;;;;;64.80;32.08;;;5.70;99.90;;;;;;5076685;28;20020;-74
2022/01/11 00:37:55;;;;;;;67.15;32.85;;;5.70;99.90;;;;;;5073188;28;20375;-72
2022/01/11 00:40:21;;;;;;;66.88;32.08;;;5.70;99.90;;;;;;5074317;28;20074;-74
2022/01/11 00:42:47;;;;;;;69.38;32.97;;;5.70;99.90;;;;;;5072876;28;20028;-74
2022/01/11 00:45:13;;;;;;;66.88;31.67;;;5.60;99.90;;;;;;5055332;28;20028;-74
2022/01/11 00:47:40;;;;;;;62.47;31.55;;;5.60;99.90;;;;;;5073457;28;20095;-73
2022/01/11 00:50:07;;;;;;;62.97;31.08;;;5.60;99.90;;;;;;5073071;28;20082;-75
2022/01/11 00:52:33;;;;;;;62.28;30.67;;;5.60;99.90;;;;;;5072564;28;20025;-73
2022/01/11 00:54:59;;;;;;;64.43;32.42;;;5.60;99.90;;;;;;5072721;28;20027;-73
2022/01/11 00:57:25;;;;;;;67.03;33.42;;;5.60;99.90;;;;;;5072948;28;20024;-73
2022/01/11 00:59:50;;;;;;;68.47;32.10;;;5.60;99.90;;;;;;5073254;28;20016;-74
2022/01/11 01:02:16;;;;;;;67.60;31.55;;;5.60;99.90;;;;;;5072084;28;20465;-75
2022/01/11 01:04:42;;;;;;;68.13;33.03;;;5.70;99.90;;;;;;5072293;28;20037;-74
2022/01/11 01:07:07;;;;;;;68.05;32.22;;;5.60;99.90;;;;;;5072774;28;20028;-75
2022/01/11 01:09:51;;;;;;;67.60;33.47;;;5.60;99.90;;;;;;5072594;28;20024;-74
2022/01/11 01:12:16;;;;;;;71.68;34.65;;;5.60;99.90;;;;;;5054666;28;20028;-75
2022/01/11 01:14:42;;;;;;;70.95;35.45;;;5.60;99.90;;;;;;5072511;28;20103;-75
2022/01/11 01:17:08;;;;;;;64.05;34.20;;;5.60;99.90;;;;;;5072324;28;20021;-74
2022/01/11 01:19:33;;;;;;;73.60;35.28;;;5.60;99.90;;;;;;5072311;28;20027;-74
2022/01/11 01:21:59;;;;;;;68.47;33.60;;;5.60;99.90;;;;;;5072183;28;20028;-73
2022/01/11 01:24:25;;;;;;;62.90;33.33;;;5.50;99.90;;;;;;5072124;28;20055;-75
2022/01/11 01:26:50;;;;;;;63.72;33.03;;;5.50;99.90;;;;;;5071726;28;20393;-74
2022/01/11 01:29:16;;;;;;;66.55;32.70;;;5.50;99.90;;;;;;5054079;28;20032;-74
2022/01/11 01:31:41;;;;;;;70.30;33.80;;;5.50;99.90;;;;;;5071923;28;20112;-75
2022/01/11 01:34:07;;;;;;;66.93;33.05;;;5.50;99.90;;;;;;5072073;28;20029;-75
2022/01/11 01:36:33;;;;;;;69.88;32.80;;;5.50;99.90;;;;;;5071450;28;20024;-75
2022/01/11 01:38:59;;;;;;;63.28;31.13;;;5.50;99.90;;;;;;5072088;28;20019;-75
2022/01/11 01:41:25;;;;;;;66.65;31.75;;;5.50;99.90;;;;;;5072399;28;20076;-75
2022/01/11 01:43:54;;;;;;;63.25;32.33;;;5.50;99.90;;;;;;5058677;28;20549;-73
2022/01/11 01:46:21;;;;;;;62.00;31.73;;;5.50;99.90;;;;;;5074208;28;20378;-74
2022/01/11 01:48:47;;;;;;;67.13;31.67;;;5.60;99.90;;;;;;5075701;28;20374;-75
2022/01/11 01:51:13;;;;;;;63.05;30.75;;;5.50;99.90;;;;;;5059980;28;20035;-74
2022/01/11 01:53:43;;;;;;;63.53;32.00;;;5.50;99.90;;;;;;5077430;28;20098;-75
2022/01/11 01:56:09;;;;;;;66.82;32.75;;;5.50;99.90;;;;;;5072127;28;20044;-75
2022/01/11 01:58:35;;;;;;;72.20;32.42;;;5.50;99.90;;;;;;5073694;28;20069;-74
2022/01/11 02:01:04;;;;;;;62.35;32.08;;;5.50;99.90;;;;;;5081724;28;20103;-75
2022/01/11 02:03:37;;;;;;;67.55;33.15;;;5.50;99.90;;;;;;5060688;28;20104;-73
2022/01/11 02:06:03;;;;;;;69.95;33.05;;;5.50;99.90;;;;;;5072343;28;20032;-75
2022/01/11 02:08:29;;;;;;;70.63;32.72;;;5.50;99.90;;;;;;5072084;28;20485;-75
2022/01/11 02:10:55;;;;;;;66.57;30.95;;;5.40;99.90;;;;;;5072908;28;20028;-75
2022/01/11 02:13:21;;;;;;;73.85;34.05;;;5.50;99.90;;;;;;5080204;28;20544;-74
2022/01/11 02:15:47;;;;;;;73.72;33.47;;;5.40;99.90;;;;;;5083740;28;20028;-76
2022/01/11 02:18:20;;;;;;;71.07;32.42;;;5.40;99.90;;;;;;5082770;28;20078;-73
2022/01/11 02:20:47;;;;;;;70.38;32.83;;;5.30;99.90;;;;;;5076213;28;20095;-73
2022/01/11 02:23:17;;;;;;;71.18;34.17;;;5.30;99.90;;;;;;5075361;28;20025;-73
2022/01/11 02:25:43;;;;;;;68.68;32.75;;;5.30;99.90;;;;;;5075461;28;20111;-73
2022/01/11 02:28:13;;;;;;;63.80;32.58;;;5.30;99.90;;;;;;5075561;28;20028;-75
2022/01/11 02:30:39;;;;;;;73.38;32.70;;;5.30;99.90;;;;;;5075429;28;20032;-74
2022/01/11 02:33:12;;;;;;;67.82;31.30;;;5.30;99.90;;;;;;5075124;28;20409;-73
2022/01/11 02:35:38;;;;;;;75.47;33.60;;;5.40;99.90;;;;;;5056997;28;20028;-73
2022/01/11 02:38:03;;;;;;;67.57;33.60;;;5.30;99.90;;;;;;5074929;28;20151;-74
2022/01/11 02:40:29;;;;;;;67.10;32.10;;;5.30;99.90;;;;;;5075148;28;20020;-73
2022/01/11 02:42:55;;;;;;;71.40;32.35;;;5.30;99.90;;;;;;5074967;28;20036;-73
2022/01/11 02:45:22;;;;;;;80.63;34.85;;;5.30;99.90;;;;;;5056695;28;20033;-74
2022/01/11 02:47:49;;;;;;;70.97;32.15;;;5.30;99.90;;;;;;5075161;28;20029;-74
2022/01/11 02:50:16;;;;;;;71.50;33.75;;;5.30;99.90;;;;;;5075392;28;20031;-74
2022/01/11 02:52:42;;;;;;;69.60;32.90;;;5.30;99.90;;;;;;5075033;28;20043;-73
2022/01/11 02:55:12;;;;;;;76.38;34.47;;;5.30;99.90;;;;;;5074816;28;20099;-75
2022/01/11 02:57:38;;;;;;;73.43;34.05;;;5.30;99.90;;;;;;5074565;28;20020;-75
2022/01/11 03:00:07;;;;;;;67.90;33.33;;;5.30;99.90;;;;;;5075220;28;20013;-76
2022/01/11 03:02:32;;;;;;;78.40;34.53;;;5.30;99.90;;;;;;5095139;28;20052;-75
2022/01/11 03:04:58;;;;;;;70.18;34.30;;;5.30;99.90;;;;;;5074968;28;20416;-74
2022/01/11 03:07:23;;;;;;;80.07;33.92;;;5.30;99.90;;;;;;5074448;28;20046;-73
2022/01/11 03:12:24;;;;;;;;;;;5.30;99.90;;;;;;5078248;28;20389;-75
2022/01/11 03:14:49;;;;;;;69.25;33.05;;;5.20;99.90;;;;;;5075305;28;19947;-75
2022/01/11 03:17:15;;;;;;;72.28;34.25;;;5.20;99.90;;;;;;5074084;28;20392;-74
2022/01/11 03:19:40;;;;;;;66.70;33.25;;;5.30;99.90;;;;;;5074075;28;20028;-74
2022/01/11 03:22:06;;;;;;;78.90;35.33;;;5.30;99.90;;;;;;5074351;28;20040;-73
2022/01/11 03:24:31;;;;;;;74.00;33.72;;;5.40;99.90;;;;;;5073491;28;20031;-75
2022/01/11 03:26:57;;;;;;;74.70;34.35;;;5.30;99.90;;;;;;5055881;28;20056;-75
2022/01/11 03:29:22;;;;;;;71.60;33.70;;;5.40;99.90;;;;;;5074142;28;20086;-75
2022/01/11 03:31:48;;;;;;;80.50;34.67;;;5.40;99.90;;;;;;5074048;28;20021;-73
2022/01/11 03:34:18;;;;;;;78.25;37.05;;;5.50;99.90;;;;;;5074210;28;20082;-75
2022/01/11 03:36:44;;;;;;;74.97;34.00;;;5.40;99.90;;;;;;5073907;28;20009;-74
2022/01/11 03:39:10;;;;;;;70.13;33.35;;;5.40;99.90;;;;;;5056080;28;20103;-73
2022/01/11 03:41:35;;;;;;;78.22;32.88;;;5.40;99.90;;;;;;5075073;28;20461;-77
2022/01/11 03:44:01;;;;;;;66.88;32.70;;;5.60;99.90;;;;;;5073670;28;20417;-76
2022/01/11 03:46:27;;;;;;;71.30;32.75;;;5.50;99.90;;;;;;5077172;28;20039;-78
2022/01/11 03:48:52;;;;;;;72.63;34.58;;;5.40;99.90;;;;;;5075464;28;20035;-75
2022/01/11 03:51:18;;;;;;;75.47;33.17;;;5.40;99.90;;;;;;5058165;28;20459;-77
2022/01/11 03:53:56;;;;;;;67.95;32.67;;;5.50;99.90;;;;;;5073651;28;20033;-77
2022/01/11 03:56:22;;;;;;;72.30;33.50;;;5.50;99.90;;;;;;5073203;28;20020;-76
2022/01/11 03:58:49;;;;;;;78.30;36.58;;;5.50;99.90;;;;;;5073618;28;20473;-77
2022/01/11 04:01:15;;;;;;;89.80;37.38;;;5.40;99.90;;;;;;5073523;28;20021;-75
2022/01/11 04:03:41;;;;;;;89.43;35.83;;;5.40;99.90;;;;;;5073457;28;20055;-75
2022/01/11 04:06:06;;;;;;;77.85;35.65;;;5.40;99.90;;;;;;5073520;28;20048;-76
2022/01/11 04:08:32;;;;;;;89.07;37.58;;;5.40;99.90;;;;;;5055770;28;20036;-76
2022/01/11 04:10:57;;;;;;;89.25;38.15;;;5.40;99.90;;;;;;5055632;28;20048;-76
2022/01/11 04:13:23;;;;;;;84.53;37.45;;;5.40;99.90;;;;;;5073445;28;20422;-75
2022/01/11 04:15:49;;;;;;;93.50;39.83;;;5.40;99.90;;;;;;5074498;28;20043;-76
2022/01/11 04:18:15;;;;;;;94.47;38.90;;;5.40;99.90;;;;;;5082641;28;20020;-75
2022/01/11 04:20:41;;;;;;;90.13;36.83;;;5.40;99.90;;;;;;5087601;28;20427;-75
2022/01/11 04:23:11;;;;;;;99.28;38.97;;;5.40;99.90;;;;;;5083013;28;20032;-74
2022/01/11 04:25:38;;;;;;;98.30;37.70;;;5.40;99.90;;;;;;5066017;28;20086;-75
2022/01/11 04:28:04;;;;;;;106.47;39.53;;;5.30;99.90;;;;;;5087514;28;20035;-74
2022/01/11 04:30:29;;;;;;;110.43;39.00;;;5.30;99.90;;;;;;5088952;28;20101;-75
2022/01/11 04:32:55;;;;;;;107.47;36.33;;;5.30;99.90;;;;;;5090244;28;20298;-74
2022/01/11 04:35:20;;;;;;;103.30;36.58;;;5.30;99.90;;;;;;5086599;28;20035;-75
2022/01/11 04:37:46;;;;;;;116.43;37.13;;;5.30;99.90;;;;;;5086567;28;20029;-73
2022/01/11 04:40:14;;;;;;;112.78;37.42;;;5.30;99.90;;;;;;5085832;28;20020;-74
2022/01/11 04:42:39;;;;;;;122.78;38.17;;;5.30;99.90;;;;;;5079674;28;20074;-73
2022/01/11 04:45:06;;;;;;;112.80;37.47;;;5.30;99.90;;;;;;5074352;28;20032;-77
2022/01/11 04:47:32;;;;;;;102.82;35.22;;;5.30;99.90;;;;;;5072614;28;20029;-74
2022/01/11 04:49:58;;;;;;;123.43;36.80;;;5.20;99.90;;;;;;5078260;28;20032;-75
2022/01/11 04:52:23;;;;;;;104.75;35.58;;;5.20;99.90;;;;;;5079442;28;20036;-74
2022/01/11 04:54:49;;;;;;;100.90;34.08;;;5.20;99.90;;;;;;5073827;28;20035;-74
2022/01/11 04:57:14;;;;;;;95.70;33.60;;;5.30;99.90;;;;;;5055768;28;20027;-73
2022/01/11 04:59:40;;;;;;;115.05;34.72;;;5.30;99.90;;;;;;5056387;28;20017;-74
2022/01/11 05:02:05;;;;;;;94.03;32.35;;;5.20;99.90;;;;;;5074369;28;20028;-75
2022/01/11 05:04:31;;;;;;;92.05;32.70;;;5.20;99.90;;;;;;5075779;28;20028;-75
2022/01/11 05:06:56;;;;;;;86.85;31.55;;;5.30;99.90;;;;;;5075943;28;20067;-73
2022/01/11 05:09:22;;;;;;;90.45;30.85;;;5.20;99.90;;;;;;5076819;28;20467;-74
2022/01/11 05:11:48;;;;;;;95.10;31.80;;;5.30;99.90;;;;;;5074650;28;20028;-75
2022/01/11 05:14:13;;;;;;;90.20;32.50;;;5.30;99.90;;;;;;5073325;28;20020;-75
2022/01/11 05:16:39;;;;;;;98.57;33.33;;;5.20;99.90;;;;;;5074565;28;20470;-75
2022/01/11 05:19:07;;;;;;;96.55;33.72;;;5.20;99.90;;;;;;5057427;28;20028;-75
2022/01/11 05:21:32;;;;;;;99.30;33.90;;;5.20;99.90;;;;;;5072897;28;20021;-74
2022/01/11 05:23:58;;;;;;;104.40;33.92;;;5.20;99.90;;;;;;5074861;28;20065;-73
2022/01/11 05:26:23;;;;;;;84.28;32.97;;;5.10;99.90;;;;;;5075159;28;20032;-75
2022/01/11 05:28:49;;;;;;;89.03;33.30;;;5.20;99.90;;;;;;5075226;28;20077;-73
2022/01/11 05:31:14;;;;;;;92.10;32.10;;;5.10;99.90;;;;;;5085132;28;20062;-75
2022/01/11 05:33:40;;;;;;;98.93;33.63;;;5.10;99.90;;;;;;5065331;28;20037;-76
2022/01/11 05:36:06;;;;;;;91.03;33.10;;;5.10;99.90;;;;;;5077516;28;20017;-75
2022/01/11 05:38:31;;;;;;;88.97;32.72;;;5.10;99.90;;;;;;5078729;28;20028;-74
2022/01/11 05:40:57;;;;;;;83.63;30.83;;;5.10;99.90;;;;;;5061499;28;20103;-74
2022/01/11 05:43:23;;;;;;;79.40;32.05;;;5.10;99.90;;;;;;5057463;28;20373;-74
2022/01/11 05:45:48;;;;;;;90.30;31.83;;;5.10;99.90;;;;;;5073167;28;20095;-74
2022/01/11 05:48:14;;;;;;;83.63;31.70;;;5.10;99.90;;;;;;5058196;28;20445;-74
2022/01/11 05:50:41;;;;;;;81.70;31.85;;;5.10;99.90;;;;;;5078763;28;20108;-72
2022/01/11 05:53:07;;;;;;;82.70;31.83;;;5.00;99.90;;;;;;5087635;28;20043;-74
2022/01/11 05:55:32;;;;;;;86.38;31.60;;;5.00;99.90;;;;;;5076002;28;20473;-74
2022/01/11 05:57:58;;;;;;;94.45;31.98;;;4.90;99.90;;;;;;5077133;28;20020;-75
2022/01/11 06:00:23;;;;;;;92.50;35.13;;;5.00;99.90;;;;;;5060987;28;20066;-75
2022/01/11 06:02:54;;;;;;;83.75;31.30;;;5.00;99.90;;;;;;5076442;28;20107;-75
2022/01/11 06:05:20;;;;;;;87.25;31.65;;;5.00;99.90;;;;;;5077386;28;20029;-73
2022/01/11 06:07:45;;;;;;;77.38;31.67;;;4.90;99.90;;;;;;5084403;28;20028;-75
2022/01/11 06:10:11;;;;;;;81.18;30.88;;;4.90;99.90;;;;;;5067280;28;20024;-75
2022/01/11 06:12:37;;;;;;;85.70;31.58;;;4.90;99.90;;;;;;5089106;28;20123;-73
2022/01/11 06:15:04;;;;;;;100.53;34.13;;;5.00;99.90;;;;;;5085567;28;20024;-74
2022/01/11 06:17:29;;;;;;;86.20;31.17;;;5.00;99.90;;;;;;5063901;28;20092;-76
2022/01/11 06:19:55;;;;;;;76.60;30.27;;;5.10;99.90;;;;;;5081452;28;20566;-75
2022/01/11 06:22:21;;;;;;;79.70;29.35;;;5.10;99.90;;;;;;5080732;28;20480;-74
2022/01/11 06:24:47;;;;;;;88.60;34.28;;;5.10;99.90;;;;;;5075912;28;20389;-74
2022/01/11 06:27:13;;;;;;;78.72;28.92;;;5.10;99.90;;;;;;5077192;28;20074;-73
2022/01/11 06:29:38;;;;;;;89.93;30.33;;;5.20;99.90;;;;;;5078137;28;20024;-74
2022/01/11 06:32:04;;;;;;;82.13;29.98;;;5.20;99.90;;;;;;5060747;28;20032;-75
2022/01/11 06:34:30;;;;;;;71.90;28.13;;;5.20;99.90;;;;;;5081745;28;20090;-73
2022/01/11 06:36:56;;;;;;;76.85;29.35;;;5.30;99.90;;;;;;5081054;28;20020;-73
2022/01/11 06:39:21;;;;;;;85.50;29.90;;;5.30;99.90;;;;;;5078687;28;20036;-73
2022/01/11 06:41:47;;;;;;;95.25;29.27;;;5.50;99.90;;;;;;5076313;28;20036;-73
2022/01/11 06:44:13;;;;;;;75.95;29.15;;;5.40;99.90;;;;;;5077068;28;20025;-74
2022/01/11 06:46:38;;;;;;;78.10;29.80;;;5.30;99.90;;;;;;5075318;28;20029;-72
2022/01/11 06:49:04;;;;;;;78.80;29.00;;;5.30;99.90;;;;;;5075281;28;20036;-73
2022/01/11 06:51:31;;;;;;;71.68;28.38;;;5.30;99.90;;;;;;5075716;28;20047;-74
2022/01/11 06:53:56;;;;;;;85.75;31.15;;;5.20;99.90;;;;;;5075893;28;20078;-74
2022/01/11 06:56:22;;;;;;;82.70;30.63;;;5.20;99.90;;;;;;5057364;28;20485;-73
2022/01/11 06:58:48;;;;;;;80.93;29.33;;;5.20;99.90;;;;;;5056722;28;20397;-75
2022/01/11 07:01:14;;;;;;;87.97;31.30;;;5.20;99.90;;;;;;5075665;28;20029;-74
2022/01/11 07:03:40;;;;;;;75.18;29.60;;;5.20;99.90;;;;;;5057172;28;20028;-74
2022/01/11 07:06:05;;;;;;;82.00;28.48;;;5.10;99.90;;;;;;5074608;28;20101;-74
2022/01/11 07:08:31;;;;;;;73.05;28.88;;;5.20;99.90;;;;;;5075194;28;20029;-74
2022/01/11 07:10:57;;;;;;;81.38;28.60;;;5.20;99.90;;;;;;5075223;28;20044;-73
2022/01/11 07:13:22;;;;;;;69.40;26.48;;;5.30;99.90;;;;;;5075241;28;20067;-75
2022/01/11 07:15:48;;;;;;;81.28;28.67;;;5.30;99.90;;;;;;5074930;28;20028;-75
2022/01/11 07:18:14;;;;;;;77.32;26.98;;;5.30;99.90;;;;;;5057617;28;20477;-75
2022/01/11 07:20:43;;;;;;;83.32;27.65;;;5.30;99.90;;;;;;5075771;28;20027;-75
2022/01/11 07:23:09;;;;;;;72.03;27.60;;;5.20;99.90;;;;;;5059221;28;20021;-73
2022/01/11 07:25:35;;;;;;;76.55;28.77;;;5.20;99.90;;;;;;5077200;28;20051;-74
2022/01/11 07:28:03;;;;;;;78.07;29.20;;;5.00;99.90;;;;;;5077790;28;20029;-74
2022/01/11 07:30:28;;;;;;;76.00;28.40;;;5.00;99.90;;;;;;5074488;28;20052;-74
2022/01/11 07:32:54;;;;;;;86.75;29.50;;;5.00;99.90;;;;;;5076420;28;20208;-74
2022/01/11 07:35:20;;;;;;;72.95;27.42;;;5.00;99.90;;;;;;5080116;28;20024;-73
2022/01/11 07:37:46;;;;;;;73.32;28.30;;;5.10;99.90;;;;;;5075920;28;20025;-75
2022/01/11 07:40:12;;;;;;;77.57;29.08;;;5.10;99.90;;;;;;5074361;28;20020;-74
2022/01/11 07:42:38;;;;;;;59.20;24.30;;;5.10;99.90;;;;;;5054586;28;20032;-75
2022/01/11 07:45:04;;;;;;;67.50;24.55;;;5.20;99.90;;;;;;5055914;28;20112;-75
2022/01/11 07:47:30;;;;;;;74.78;25.60;;;5.40;99.90;;;;;;5073398;28;20036;-75
2022/01/11 07:49:55;;;;;;;74.75;26.00;;;5.40;99.90;;;;;;5074061;28;20031;-73
2022/01/11 07:52:21;;;;;;;70.13;24.85;;;5.40;99.90;;;;;;5073310;28;20027;-74
2022/01/11 07:54:47;;;;;;;66.85;24.85;;;5.50;99.90;;;;;;5074439;28;20369;-76
2022/01/11 07:57:13;;;;;;;66.55;24.88;;;5.50;99.90;;;;;;5057358;28;20024;-76
2022/01/11 07:59:38;;;;;;;66.50;25.15;;;5.70;99.90;;;;;;5078308;28;20036;-74
2022/01/11 08:02:04;;;;;;;60.22;23.13;;;5.70;99.90;;;;;;5082901;28;20035;-74
2022/01/11 08:04:31;;;;;;;65.45;23.88;;;5.70;99.90;;;;;;5082428;28;20016;-74
2022/01/11 08:06:58;;;;;;;75.78;24.98;;;5.60;99.90;;;;;;5075012;28;20069;-74
2022/01/11 08:09:24;;;;;;;79.13;27.63;;;5.50;99.90;;;;;;5075514;28;20017;-75
2022/01/11 08:11:50;;;;;;;72.35;26.08;;;5.40;99.90;;;;;;5073508;28;20528;-74
2022/01/11 08:14:16;;;;;;;69.35;26.13;;;5.30;99.90;;;;;;5073737;28;20512;-75
2022/01/11 08:16:42;;;;;;;68.13;25.23;;;5.30;99.90;;;;;;5075210;28;20043;-74
2022/01/11 08:19:09;;;;;;;65.88;27.35;;;5.20;99.90;;;;;;5076574;28;20453;-75
2022/01/11 08:21:34;;;;;;;63.30;25.35;;;5.20;99.90;;;;;;5075192;28;20031;-76
2022/01/11 08:24:00;;;;;;;66.35;26.50;;;5.10;99.90;;;;;;5076804;28;20554;-77
2022/01/11 08:26:25;;;;;;;68.00;25.23;;;5.20;99.90;;;;;;5076852;28;20396;-75
2022/01/11 08:28:51;;;;;;;71.20;25.52;;;5.20;99.90;;;;;;5058922;28;20021;-76
2022/01/11 08:31:16;;;;;;;59.75;21.70;;;5.20;99.90;;;;;;5060250;28;20029;-73
2022/01/11 08:33:42;;;;;;;64.22;23.63;;;5.20;99.90;;;;;;5075653;28;20035;-75
2022/01/11 08:36:08;;;;;;;60.67;22.13;;;5.30;99.90;;;;;;5073512;28;20353;-74
2022/01/11 08:38:37;;;;;;;65.50;22.42;;;5.20;99.90;;;;;;5073272;28;20021;-74
2022/01/11 08:41:03;;;;;;;63.63;23.25;;;5.20;99.90;;;;;;5073218;28;20396;-75
2022/01/11 08:43:28;;;;;;;62.20;21.95;;;5.40;99.90;;;;;;5055526;28;20028;-75
2022/01/11 08:45:55;;;;;;;64.35;24.05;;;5.30;99.90;;;;;;5073059;28;20023;-74
2022/01/11 08:48:21;;;;;;;71.18;25.40;;;5.30;99.90;;;;;;5073693;28;20032;-74
2022/01/11 08:50:47;;;;;;;67.40;24.50;;;5.20;99.90;;;;;;5073282;28;20359;-74
2022/01/11 08:53:12;;;;;;;66.30;25.65;;;5.20;99.90;;;;;;5073464;28;20027;-74
2022/01/11 08:55:38;;;;;;;77.20;25.92;;;5.20;99.90;;;;;;5073189;28;20024;-78
2022/01/11 08:58:04;;;;;;;71.25;25.90;;;5.20;99.90;;;;;;5056694;28;20021;-82
2022/01/11 09:00:29;;;;;;;68.90;26.65;;;5.10;99.90;;;;;;5067202;28;20016;-85
2022/01/11 09:02:55;;;;;;;67.68;25.67;;;5.20;99.90;;;;;;5069904;28;20092;-75
2022/01/11 09:05:22;;;;;;;74.53;25.70;;;5.00;99.90;;;;;;5082172;28;20024;-79
2022/01/11 09:07:48;;;;;;;61.78;24.30;;;5.00;99.90;;;;;;5076537;28;20029;-76
2022/01/11 09:10:14;;;;;;;62.20;22.35;;;5.10;99.90;;;;;;5075697;28;20028;-77
2022/01/11 09:12:40;;;;;;;68.47;25.10;;;5.10;99.90;;;;;;5075488;28;20089;-75
2022/01/11 09:15:08;;;;;;;75.72;26.48;;;5.10;99.90;;;;;;5076536;28;20116;-78
2022/01/11 09:17:35;;;;;;;64.72;23.38;;;5.10;99.90;;;;;;5058929;28;20017;-79
2022/01/11 09:20:01;;;;;;;66.40;23.17;;;5.20;99.90;;;;;;5076422;28;20029;-78
2022/01/11 09:22:27;;;;;;;62.40;21.67;;;5.20;99.90;;;;;;5074941;28;20044;-77
2022/01/11 09:24:55;;;;;;;63.65;23.17;;;5.40;99.90;;;;;;5057595;28;20086;-76
2022/01/11 09:27:20;;;;;;;57.25;21.17;;;5.30;99.90;;;;;;5074957;28;20428;-77
2022/01/11 09:29:46;;;;;;;62.63;19.45;;;5.40;99.90;;;;;;5075606;28;20025;-76
2022/01/11 09:32:12;;;;;;;58.03;21.70;;;5.40;99.90;;;;;;5080301;28;20024;-77
2022/01/11 09:34:39;;;;;;;64.10;24.48;;;5.40;99.90;;;;;;5083323;28;20025;-75
2022/01/11 09:37:06;;;;;;;68.75;21.02;;;5.30;99.90;;;;;;5084383;28;20028;-78
2022/01/11 09:39:32;;;;;;;56.80;20.45;;;5.40;99.90;;;;;;5074358;28;20408;-75
2022/01/11 09:41:59;;;;;;;58.47;20.45;;;5.50;99.90;;;;;;5074898;28;20028;-77
2022/01/11 09:44:25;;;;;;;44.10;18.23;;;5.60;99.90;;;;;;5073450;28;20543;-76
2022/01/11 09:46:52;;;;;;;54.17;17.85;;;5.60;99.90;;;;;;5074174;28;20082;-76
2022/01/11 09:49:18;;;;;;;52.80;17.85;;;5.60;99.90;;;;;;5057885;28;20017;-77
2022/01/11 09:51:44;;;;;;;60.90;18.38;;;5.60;99.90;;;;;;5075299;28;20028;-76
2022/01/11 09:54:12;;;;;;;51.35;18.27;;;5.70;99.90;;;;;;5076579;28;20029;-77
2022/01/11 09:56:38;;;;;;;48.63;17.42;;;5.80;99.90;;;;;;5074495;28;20104;-76
2022/01/11 09:59:05;;;;;;;54.05;17.40;;;5.80;99.90;;;;;;5074434;28;20025;-74
2022/01/11 10:01:31;;;;;;;59.60;17.80;;;5.80;99.90;;;;;;5078510;28;20028;-77
2022/01/11 10:04:06;;;;;;;46.35;15.77;;;5.90;99.90;;;;;;5075558;28;20024;-76
2022/01/11 10:06:34;;;;;;;47.33;16.25;;;6.00;99.90;;;;;;5073324;28;20100;-78
2022/01/11 10:09:21;;;;;;;53.30;16.33;;;6.00;99.90;;;;;;5055793;28;20024;-76
2022/01/11 10:11:52;;;;;;;42.40;16.80;;;6.10;99.90;;;;;;5053416;28;20424;-76
2022/01/11 10:14:26;;;;;;;52.70;18.00;;;6.20;99.90;;;;;;5072527;28;20025;-79
2022/01/11 10:17:09;;;;;;;43.60;16.83;;;6.30;99.90;;;;;;5054631;28;20525;-78
2022/01/11 10:19:37;;;;;;;49.92;16.38;;;6.40;99.90;;;;;;5073018;28;20032;-76
2022/01/11 10:22:06;;;;;;;47.47;17.40;;;6.50;99.90;;;;;;5072618;28;20013;-76
2022/01/11 10:24:39;;;;;;;46.58;18.02;;;6.50;99.90;;;;;;5072896;28;20024;-78
2022/01/11 10:27:28;;;;;;;45.80;17.45;;;6.50;99.90;;;;;;5073306;28;20017;-78
2022/01/11 10:29:58;;;;;;;48.10;16.55;;;6.60;99.90;;;;;;5056708;28;20493;-75
2022/01/11 10:32:35;;;;;;;51.75;18.40;;;6.60;99.90;;;;;;5075819;28;20027;-77
2022/01/11 10:35:23;;;;;;;49.65;18.65;;;6.70;99.90;;;;;;5058400;28;20434;-77
2022/01/11 10:37:51;;;;;;;55.65;18.30;;;6.70;99.90;;;;;;5075887;28;20078;-78
2022/01/11 10:40:25;;;;;;;53.30;19.50;;;6.60;99.90;;;;;;5075304;28;20027;-77
2022/01/11 10:42:56;;;;;;;52.78;17.70;;;6.60;99.90;;;;;;5075931;28;20036;-77
2022/01/11 10:45:29;;;;;;;52.65;18.15;;;6.60;99.90;;;;;;5076116;28;20036;-77
2022/01/11 10:48:03;;;;;;;45.45;18.13;;;6.60;99.90;;;;;;5076207;28;20028;-74
2022/01/11 10:50:39;;;;;;;52.60;17.58;;;6.60;99.90;;;;;;5076916;28;20020;-77
2022/01/11 10:53:10;;;;;;;52.67;18.27;;;6.60;99.90;;;;;;5078512;28;20040;-79
2022/01/11 10:55:36;;;;;;;53.15;15.30;;;6.70;99.90;;;;;;5084114;28;20065;-76
2022/01/11 10:58:07;;;;;;;45.67;17.83;;;6.90;99.90;;;;;;5067933;28;20035;-76
2022/01/11 11:00:36;;;;;;;49.35;16.63;;;6.80;99.90;;;;;;5077503;28;20050;-76
2022/01/11 11:03:12;;;;;;;49.55;16.48;;;6.90;99.90;;;;;;5077461;28;20027;-76
2022/01/11 11:06:07;;;;;;;44.75;15.23;;;7.00;99.90;;;;;;5078726;28;20032;-75
2022/01/11 11:08:36;;;;;;;57.33;20.07;;;7.00;99.90;;;;;;5067387;28;20024;-76
2022/01/11 11:11:12;;;;;;;49.90;16.77;;;7.10;99.90;;;;;;5087386;28;20039;-77
2022/01/11 11:13:40;;;;;;;46.78;16.20;;;7.10;99.90;;;;;;5087812;28;20021;-77
2022/01/11 11:16:21;;;;;;;46.75;15.63;;;7.20;99.90;;;;;;5057963;28;20115;-76
2022/01/11 11:18:53;;;;;;;41.45;14.75;;;7.20;99.90;;;;;;5057398;28;20025;-76
2022/01/11 11:21:32;;;;;;;46.72;14.75;;;7.10;99.90;;;;;;5056834;28;20042;-77
2022/01/11 11:24:05;;;;;;;41.92;14.18;;;7.20;99.90;;;;;;5057598;28;20028;-77
2022/01/11 11:26:37;;;;;;;43.83;15.02;;;7.30;99.90;;;;;;5074803;28;20016;-76
2022/01/11 11:29:08;;;;;;;37.17;14.38;;;7.20;99.90;;;;;;5075380;28;20035;-79
2022/01/11 11:31:35;;;;;;;50.22;16.35;;;7.30;99.90;;;;;;5079638;28;20370;-76
2022/01/11 11:34:08;;;;;;;43.60;16.13;;;7.40;99.90;;;;;;5079427;28;20028;-76
2022/01/11 11:36:35;;;;;;;46.13;17.83;;;7.30;99.90;;;;;;5077849;28;20040;-78
2022/01/11 11:39:04;;;;;;;46.78;16.85;;;7.30;99.90;;;;;;5075161;28;20019;-75
2022/01/11 11:41:31;;;;;;;52.45;17.98;;;7.30;99.90;;;;;;5075028;28;20036;-76
2022/01/11 11:44:15;;;;;;;44.05;16.58;;;7.10;99.90;;;;;;5075158;28;20099;-76
2022/01/11 11:47:02;;;;;;;45.80;18.60;;;7.20;99.90;;;;;;5074289;28;20021;-76
2022/01/11 11:50:03;;;;;;;41.47;16.27;;;7.30;99.90;;;;;;5075803;28;20074;-76
2022/01/11 11:52:39;;;;;;;46.63;17.20;;;7.50;99.90;;;;;;5021878;28;20036;-77
2022/01/11 11:55:24;;;;;;;43.50;17.50;;;7.60;99.90;;;;;;5074451;28;20050;-77
2022/01/11 11:57:53;;;;;;;40.80;15.38;;;7.90;99.90;;;;;;5074554;28;20020;-77
2022/01/11 12:00:23;;;;;;;39.75;15.63;;;8.10;99.90;;;;;;5076629;28;20028;-75
2022/01/11 12:02:50;;;;;;;42.70;15.38;;;8.70;99.90;;;;;;5076537;28;20024;-76
2022/01/11 12:05:31;;;;;;;35.00;15.20;;;9.70;99.90;;;;;;5081020;28;20013;-77
2022/01/11 12:07:58;;;;;;;41.63;13.68;;;10.90;99.90;;;;;;5087313;28;20127;-78
2022/01/11 12:10:47;;;;;;;33.42;11.38;;;11.80;99.90;;;;;;5072611;28;20033;-75
2022/01/11 12:13:49;;;;;;;31.15;12.18;;;12.50;99.90;;;;;;5090587;28;20032;-77
2022/01/11 12:16:27;;;;;;;33.75;12.10;;;;;;;;;;5090882;28;20043;-75
2022/01/11 12:18:54;;;;;;;31.95;12.93;;;13.70;99.90;;;;;;5091462;28;20035;-76
2022/01/11 12:21:21;;;;;;;31.38;12.98;;;13.50;99.90;;;;;;5073577;28;20035;-76
2022/01/11 12:23:49;;;;;;;24.45;10.85;;;13.30;99.90;;;;;;5090550;28;20020;-76
2022/01/11 12:26:16;;;;;;;37.75;13.82;;;13.30;99.90;;;;;;5087592;28;20128;-75
2022/01/11 12:29:09;;;;;;;31.10;11.88;;;13.90;99.90;;;;;;5088968;28;20028;-74
2022/01/11 12:31:56;;;;;;;35.33;11.60;;;14.60;99.90;;;;;;5058057;28;20028;-76
2022/01/11 12:34:46;;;;;;;43.75;13.80;;;14.80;99.90;;;;;;5076836;28;20024;-76
2022/01/11 12:37:26;;;;;;;28.05;11.35;;;14.90;99.90;;;;;;5077910;28;20033;-77
2022/01/11 12:40:04;;;;;;;30.70;11.50;;;15.40;99.90;;;;;;5058775;28;20024;-78
2022/01/11 12:42:30;;;;;;;33.13;11.32;;;15.80;99.90;;;;;;5057680;28;20033;-75
2022/01/11 12:47:43;;;;;;;25.50;10.77;;;14.70;99.90;;;;;;5078451;28;20033;-78
2022/01/11 12:50:12;;;;;;;33.35;11.25;;;14.30;99.90;;;;;;5057454;28;20035;-75